createdAt,value
2023-12-23T00:01:30.427Z,6.03
2023-12-23T00:04:33.014Z,5.93
2023-12-23T00:07:37.043Z,5.70
2023-12-23T00:10:39.707Z,6.53
2023-12-23T00:13:42.272Z,5.85
2023-12-23T00:16:44.767Z,6.10
2023-12-23T00:19:47.479Z,6.07
2023-12-23T00:22:50.176Z,6.15
2023-12-23T00:25:52.806Z,6.57
2023-12-23T00:28:56.068Z,6.28
2023-12-23T00:31:58.826Z,6.45
2023-12-23T00:35:01.426Z,5.70
2023-12-23T00:38:04.174Z,6.30
2023-12-23T00:41:06.973Z,6.03
2023-12-23T00:44:10.038Z,5.72
2023-12-23T00:47:12.628Z,5.53
2023-12-23T00:50:15.382Z,4.82
2023-12-23T00:53:18.088Z,5.50
2023-12-23T00:56:24.033Z,5.65
2023-12-23T00:59:26.587Z,5.57
2023-12-23T01:02:29.010Z,6.20
2023-12-23T01:05:31.634Z,6.00
2023-12-23T01:08:34.192Z,6.10
2023-12-23T01:11:36.777Z,5.93
2023-12-23T01:14:39.350Z,5.35
2023-12-23T01:17:42.506Z,5.10
2023-12-23T01:20:45.109Z,6.20
2023-12-23T01:23:47.710Z,5.90
2023-12-23T01:26:50.195Z,6.13
2023-12-23T01:29:52.896Z,5.47
2023-12-23T01:32:55.524Z,5.60
2023-12-23T01:35:58.188Z,5.70
2023-12-23T01:39:00.897Z,5.63
2023-12-23T01:42:03.504Z,5.55
2023-12-23T01:45:06.501Z,5.87
2023-12-23T01:48:12.154Z,4.65
2023-12-23T01:51:15.790Z,4.82
2023-12-23T01:54:20.485Z,4.57
2023-12-23T01:57:23.107Z,3.70
2023-12-23T02:00:25.639Z,3.37
2023-12-23T02:03:29.851Z,2.80
2023-12-23T02:06:32.825Z,2.90
2023-12-23T02:09:36.200Z,3.35
2023-12-23T02:13:13.038Z,3.93
2023-12-23T02:16:16.937Z,5.10
2023-12-23T02:19:19.745Z,5.25
2023-12-23T02:22:22.424Z,6.93
2023-12-23T02:25:25.084Z,6.00
2023-12-23T02:28:27.725Z,6.25
2023-12-23T02:31:31.595Z,5.93
2023-12-23T02:34:35.246Z,5.27
2023-12-23T02:37:37.831Z,4.70
2023-12-23T02:40:40.390Z,4.18
2023-12-23T02:43:42.989Z,4.13
2023-12-23T02:46:45.540Z,3.50
2023-12-23T02:49:48.074Z,3.80
2023-12-23T02:52:51.725Z,3.20
2023-12-23T02:55:54.541Z,2.85
2023-12-23T02:58:57.094Z,3.40
2023-12-23T03:01:59.708Z,3.08
2023-12-23T03:05:02.449Z,3.50
2023-12-23T03:08:05.363Z,3.35
2023-12-23T03:11:09.653Z,3.60
2023-12-23T03:14:12.361Z,3.20
2023-12-23T03:17:15.102Z,3.47
2023-12-23T03:20:17.799Z,3.35
2023-12-23T03:23:20.469Z,3.15
2023-12-23T03:26:23.322Z,3.42
2023-12-23T03:29:26.389Z,3.88
2023-12-23T03:32:28.969Z,3.63
2023-12-23T03:35:31.530Z,3.72
2023-12-23T03:38:34.195Z,4.53
2023-12-23T03:41:36.686Z,4.30
2023-12-23T03:44:39.137Z,4.55
2023-12-23T03:47:42.430Z,4.50
2023-12-23T03:50:45.131Z,4.78
2023-12-23T03:53:47.932Z,3.70
2023-12-23T03:56:52.092Z,2.72
2023-12-23T03:59:54.821Z,1.80
2023-12-23T04:02:58.638Z,0.80
2023-12-23T04:06:02.580Z,0.95
2023-12-23T04:09:04.999Z,0.60
2023-12-23T04:12:07.860Z,0.60
2023-12-23T04:15:11.112Z,0.63
2023-12-23T04:18:13.816Z,0.52
2023-12-23T04:21:16.381Z,0.80
2023-12-23T04:24:21.188Z,0.70
2023-12-23T04:27:23.645Z,0.77
2023-12-23T04:30:26.245Z,0.70
2023-12-23T04:33:29.571Z,0.68
2023-12-23T04:36:32.566Z,0.50
2023-12-23T04:39:35.181Z,0.70
2023-12-23T04:42:39.192Z,0.33
2023-12-23T04:45:41.872Z,0.13
2023-12-23T04:48:44.781Z,0.15
2023-12-23T04:51:47.433Z,0.20
2023-12-23T04:54:50.246Z,0.10
2023-12-23T04:57:52.953Z,0.10
2023-12-23T05:00:55.476Z,0.20
2023-12-23T05:03:58.047Z,0.30
2023-12-23T05:07:00.686Z,0.10
2023-12-23T05:10:04.271Z,0.00
2023-12-23T05:13:06.934Z,0.15
2023-12-23T05:16:09.885Z,0.07
2023-12-23T05:19:12.472Z,0.10
2023-12-23T05:22:15.698Z,0.10
2023-12-23T05:25:18.271Z,0.20
2023-12-23T05:28:21.018Z,0.00
2023-12-23T05:31:23.886Z,0.00
2023-12-23T05:34:26.905Z,0.10
2023-12-23T05:37:30.345Z,0.00
2023-12-23T05:40:32.886Z,0.10
2023-12-23T05:43:35.671Z,0.10
2023-12-23T05:46:38.200Z,0.00
2023-12-23T05:49:40.833Z,0.10
2023-12-23T05:52:45.377Z,0.08
2023-12-23T05:55:48.437Z,0.13
2023-12-23T05:58:51.055Z,0.20
2023-12-23T06:01:53.641Z,0.10
2023-12-23T06:04:56.551Z,0.00
2023-12-23T06:07:59.611Z,0.10
2023-12-23T06:11:05.693Z,0.20
2023-12-23T06:14:08.900Z,0.03
2023-12-23T06:17:11.479Z,0.00
2023-12-23T06:20:14.043Z,0.00
2023-12-23T06:23:16.595Z,0.10
2023-12-23T06:26:19.221Z,0.10
2023-12-23T06:29:21.897Z,0.00
2023-12-23T06:32:24.734Z,0.10
2023-12-23T06:35:27.456Z,0.00
2023-12-23T06:38:30.028Z,0.00
2023-12-23T06:41:32.676Z,0.00
2023-12-23T06:44:35.258Z,0.00
2023-12-23T06:47:37.975Z,0.03
2023-12-23T06:50:40.643Z,0.00
2023-12-23T06:53:43.232Z,0.03
2023-12-23T06:56:45.744Z,0.10
2023-12-23T06:59:48.422Z,0.10
2023-12-23T07:02:52.850Z,0.10
2023-12-23T07:05:55.744Z,0.17
2023-12-23T07:08:58.290Z,0.10
2023-12-23T07:12:00.839Z,0.30
2023-12-23T07:15:05.109Z,0.35
2023-12-23T07:18:08.386Z,0.10
2023-12-23T07:21:11.079Z,0.10
2023-12-23T07:24:13.666Z,0.00
2023-12-23T07:27:16.167Z,0.00
2023-12-23T07:30:18.718Z,0.10
2023-12-23T07:33:22.502Z,0.00
2023-12-23T07:36:25.052Z,0.00
2023-12-23T07:39:27.634Z,0.00
2023-12-23T07:42:30.144Z,0.15
2023-12-23T07:45:33.085Z,0.10
2023-12-23T07:48:35.547Z,0.10
2023-12-23T07:51:38.978Z,0.10
2023-12-23T07:54:41.484Z,0.00
2023-12-23T07:57:44.042Z,0.30
2023-12-23T08:00:47.713Z,0.00
2023-12-23T08:03:50.370Z,0.10
2023-12-23T08:06:53.867Z,0.13
2023-12-23T08:09:56.426Z,0.03
2023-12-23T08:12:58.928Z,0.10
2023-12-23T08:16:02.074Z,0.10
2023-12-23T08:19:04.991Z,0.00
2023-12-23T08:22:07.852Z,0.00
2023-12-23T08:25:10.356Z,0.00
2023-12-23T08:28:13.007Z,0.10
2023-12-23T08:31:15.559Z,0.10
2023-12-23T08:34:20.168Z,0.00
2023-12-23T08:37:24.030Z,0.27
2023-12-23T08:40:27.325Z,0.00
2023-12-23T08:43:29.876Z,0.20
2023-12-23T08:46:35.255Z,0.03
2023-12-23T08:49:43.086Z,0.10
2023-12-23T08:52:45.712Z,0.10
2023-12-23T08:55:48.344Z,0.00
2023-12-23T08:58:50.806Z,0.10
2023-12-23T09:01:53.280Z,0.13
2023-12-23T09:04:55.845Z,0.10
2023-12-23T09:07:58.819Z,0.13
2023-12-23T09:11:05.510Z,0.20
2023-12-23T09:14:08.064Z,0.00
2023-12-23T09:17:10.548Z,0.38
2023-12-23T09:20:13.175Z,0.20
2023-12-23T09:23:15.842Z,0.28
2023-12-23T09:26:18.618Z,0.20
2023-12-23T09:29:21.500Z,0.00
2023-12-23T09:32:24.280Z,0.05
2023-12-23T09:35:26.847Z,0.20
2023-12-23T09:38:29.413Z,0.10
2023-12-23T09:41:33.311Z,0.30
2023-12-23T09:44:35.883Z,0.00
2023-12-23T09:47:38.553Z,0.10
2023-12-23T09:50:41.233Z,0.03
2023-12-23T09:53:47.956Z,0.05
2023-12-23T09:56:51.982Z,0.45
2023-12-23T09:59:55.505Z,0.22
2023-12-23T10:02:58.103Z,0.20
2023-12-23T10:06:02.210Z,0.20
2023-12-23T10:09:05.095Z,0.70
2023-12-23T10:12:08.051Z,0.40
2023-12-23T10:15:12.873Z,0.30
2023-12-23T10:18:15.573Z,0.20
2023-12-23T10:21:19.657Z,0.35
2023-12-23T10:24:22.150Z,1.17
2023-12-23T10:27:27.417Z,1.20
2023-12-23T10:30:34.527Z,0.67
2023-12-23T10:33:42.884Z,0.40
2023-12-23T10:36:45.780Z,0.17
2023-12-23T10:39:54.042Z,0.73
2023-12-23T10:42:59.570Z,0.43
2023-12-23T10:46:04.576Z,0.40
2023-12-23T10:49:08.758Z,0.32
2023-12-23T10:52:12.607Z,1.02
2023-12-23T10:55:17.389Z,0.90
2023-12-23T10:58:22.073Z,0.50
2023-12-23T11:01:30.341Z,0.95
2023-12-23T11:04:33.205Z,0.90
2023-12-23T11:07:42.240Z,0.70
2023-12-23T11:10:46.588Z,0.37
2023-12-23T11:13:49.181Z,1.70
2023-12-23T11:16:51.727Z,0.77
2023-12-23T11:19:58.931Z,0.80
2023-12-23T11:23:21.818Z,0.05
2023-12-23T11:26:36.565Z,0.87
2023-12-23T11:29:39.843Z,0.32
2023-12-23T11:32:45.071Z,1.25
2023-12-23T11:35:48.636Z,0.28
2023-12-23T11:38:53.351Z,1.05
2023-12-23T11:41:56.582Z,0.20
2023-12-23T11:45:00.946Z,0.75
2023-12-23T11:48:03.732Z,0.45
2023-12-23T11:51:08.193Z,0.53
2023-12-23T11:54:10.847Z,0.50
2023-12-23T11:57:13.547Z,0.75
2023-12-23T12:00:16.400Z,0.40
2023-12-23T12:03:18.947Z,0.50
2023-12-23T12:06:21.545Z,0.40
2023-12-23T12:09:24.279Z,1.30
2023-12-23T12:12:27.747Z,0.63
2023-12-23T12:15:30.301Z,1.48
2023-12-23T12:18:32.880Z,1.30
2023-12-23T12:21:35.451Z,1.92
2023-12-23T12:24:39.132Z,1.60
2023-12-23T12:27:41.931Z,1.30
2023-12-23T12:30:48.336Z,1.02
2023-12-23T12:33:51.540Z,1.23
2023-12-23T12:36:54.961Z,1.00
2023-12-23T12:39:59.154Z,1.57
2023-12-23T12:43:09.262Z,1.73
2023-12-23T12:46:16.195Z,1.70
2023-12-23T12:49:20.542Z,2.00
2023-12-23T12:52:22.996Z,2.07
2023-12-23T12:55:25.687Z,2.70
2023-12-23T12:58:28.243Z,2.70
2023-12-23T13:01:30.843Z,2.63
2023-12-23T13:04:33.534Z,2.13
2023-12-23T13:07:36.062Z,1.55
2023-12-23T13:10:38.635Z,3.55
2023-12-23T13:13:41.142Z,2.45
2023-12-23T13:16:46.373Z,3.23
2023-12-23T13:19:50.393Z,2.30
2023-12-23T13:22:53.291Z,2.53
2023-12-23T13:25:56.087Z,5.00
2023-12-23T13:28:58.688Z,4.03
2023-12-23T13:32:01.300Z,5.13
2023-12-23T13:35:04.730Z,6.05
2023-12-23T13:38:07.658Z,5.43
2023-12-23T13:41:11.358Z,5.63
2023-12-23T13:44:14.045Z,7.00
2023-12-23T13:47:16.671Z,6.93
2023-12-23T13:50:19.359Z,6.85
2023-12-23T13:53:21.919Z,9.30
2023-12-23T13:56:24.937Z,8.27
2023-12-23T13:59:27.564Z,11.40
2023-12-23T14:02:30.208Z,11.82
2023-12-23T14:05:32.855Z,9.20
2023-12-23T14:08:35.823Z,12.20
2023-12-23T14:11:38.398Z,9.57
2023-12-23T14:14:40.898Z,10.13
2023-12-23T14:17:43.502Z,9.55
2023-12-23T14:20:46.078Z,9.27
2023-12-23T14:23:48.663Z,9.15
2023-12-23T14:26:51.215Z,8.93
2023-12-23T14:29:53.718Z,8.13
2023-12-23T14:32:56.353Z,9.23
2023-12-23T14:35:59.819Z,7.50
2023-12-23T14:39:03.955Z,6.93
2023-12-23T14:42:06.649Z,7.60
2023-12-23T14:45:09.722Z,7.90
2023-12-23T14:48:12.639Z,6.63
2023-12-23T14:51:15.292Z,6.80
2023-12-23T14:54:17.749Z,7.78
2023-12-23T14:57:20.332Z,7.68
2023-12-23T15:00:22.926Z,7.82
2023-12-23T15:03:25.676Z,8.17
2023-12-23T15:06:28.544Z,7.85
2023-12-23T15:09:31.682Z,7.47
2023-12-23T15:12:34.421Z,8.82
2023-12-23T15:15:37.166Z,6.73
2023-12-23T15:18:39.924Z,7.10
2023-12-23T15:21:42.415Z,7.65
2023-12-23T15:24:44.985Z,9.13
2023-12-23T15:27:47.574Z,6.57
2023-12-23T15:30:56.436Z,10.60
2023-12-23T15:33:59.750Z,11.68
2023-12-23T15:37:02.439Z,12.97
2023-12-23T15:40:06.341Z,10.88
2023-12-23T15:43:11.114Z,11.13
2023-12-23T15:46:17.169Z,11.23
2023-12-23T15:49:19.810Z,11.17
2023-12-23T15:52:22.497Z,12.90
2023-12-23T15:55:25.879Z,12.27
2023-12-23T15:58:28.512Z,12.33
2023-12-23T16:01:31.050Z,13.05
2023-12-23T16:04:33.797Z,13.50
2023-12-23T16:07:36.427Z,10.10
2023-12-23T16:10:39.696Z,10.02
2023-12-23T16:13:48.519Z,8.07
2023-12-23T16:16:51.285Z,8.63
2023-12-23T16:19:54.012Z,8.87
2023-12-23T16:22:56.671Z,9.60
2023-12-23T16:26:00.402Z,9.27
2023-12-23T16:29:04.752Z,9.27
2023-12-23T16:32:07.355Z,9.77
2023-12-23T16:35:10.122Z,9.55
2023-12-23T16:38:12.749Z,8.82
2023-12-23T16:41:15.359Z,8.35
2023-12-23T16:44:18.104Z,7.13
2023-12-23T16:47:20.858Z,7.38
2023-12-23T16:50:23.616Z,8.68
2023-12-23T16:53:26.231Z,9.00
2023-12-23T16:56:28.823Z,8.50
2023-12-23T16:59:31.513Z,8.85
2023-12-23T17:02:34.221Z,9.07
2023-12-23T17:05:36.867Z,10.00
2023-12-23T17:08:40.618Z,10.13
2023-12-23T17:11:43.199Z,10.85
2023-12-23T17:14:49.306Z,9.32
2023-12-23T17:17:51.966Z,9.10
2023-12-23T17:20:54.614Z,12.43
2023-12-23T17:23:57.135Z,13.40
2023-12-23T17:27:01.487Z,11.25
2023-12-23T17:30:04.525Z,8.90
2023-12-23T17:33:13.439Z,8.93
2023-12-23T17:36:16.497Z,8.20
2023-12-23T17:39:22.025Z,7.25
2023-12-23T17:42:24.601Z,7.90
2023-12-23T17:45:27.092Z,7.40
2023-12-23T17:48:29.695Z,8.55
2023-12-23T17:51:32.370Z,11.13
2023-12-23T17:54:34.890Z,11.30
2023-12-23T17:57:37.517Z,10.18
2023-12-23T18:00:40.105Z,10.98
2023-12-23T18:03:42.732Z,10.68
2023-12-23T18:06:45.712Z,9.10
2023-12-23T18:09:48.218Z,8.25
2023-12-23T18:12:51.296Z,9.07
2023-12-23T18:15:55.806Z,9.95
2023-12-23T18:18:58.377Z,9.70
2023-12-23T18:22:02.672Z,8.65
2023-12-23T18:25:06.044Z,10.20
2023-12-23T18:28:08.726Z,9.55
2023-12-23T18:31:11.264Z,9.40
2023-12-23T18:34:14.012Z,9.32
2023-12-23T18:37:17.809Z,10.45
2023-12-23T18:40:20.508Z,12.27
2023-12-23T18:43:23.020Z,12.30
2023-12-23T18:46:25.687Z,10.80
2023-12-23T18:49:28.492Z,12.25
2023-12-23T18:52:31.032Z,11.57
2023-12-23T18:55:34.292Z,12.57
2023-12-23T18:58:36.923Z,10.52
2023-12-23T19:01:39.463Z,12.10
2023-12-23T19:04:42.266Z,10.53
2023-12-23T19:07:44.792Z,12.45
2023-12-23T19:10:47.828Z,12.50
2023-12-23T19:13:50.360Z,10.05
2023-12-23T19:16:53.140Z,12.30
2023-12-23T19:19:55.776Z,10.75
2023-12-23T19:22:58.741Z,12.23
2023-12-23T19:26:01.272Z,11.83
2023-12-23T19:29:03.911Z,11.93
2023-12-23T19:32:06.888Z,13.55
2023-12-23T19:35:10.098Z,12.65
2023-12-23T19:38:12.833Z,13.47
2023-12-23T19:41:15.777Z,12.63
2023-12-23T19:44:19.102Z,11.82
2023-12-23T19:47:21.715Z,11.87
2023-12-23T19:50:24.284Z,11.88
2023-12-23T19:53:29.003Z,12.55
2023-12-23T19:56:31.721Z,11.98
2023-12-23T19:59:34.408Z,14.17
2023-12-23T20:02:37.051Z,18.80
2023-12-23T20:05:39.768Z,14.45
2023-12-23T20:08:42.455Z,11.80
2023-12-23T20:11:45.272Z,12.77
2023-12-23T20:14:47.848Z,9.23
2023-12-23T20:17:50.524Z,8.98
2023-12-23T20:20:53.078Z,6.68
2023-12-23T20:23:55.630Z,4.87
2023-12-23T20:26:59.763Z,3.67
2023-12-23T20:30:03.891Z,3.50
2023-12-23T20:33:06.526Z,3.63
2023-12-23T20:36:09.358Z,5.13
2023-12-23T20:39:11.986Z,3.58
2023-12-23T20:42:28.243Z,2.92
2023-12-23T20:45:30.750Z,3.50
2023-12-23T20:48:33.547Z,3.70
2023-12-23T20:51:36.293Z,3.23
2023-12-23T20:54:39.735Z,4.05
2023-12-23T20:57:42.256Z,2.88
2023-12-23T21:00:45.021Z,4.03
2023-12-23T21:03:47.722Z,3.70
2023-12-23T21:06:51.143Z,2.55
2023-12-23T21:09:56.263Z,2.53
2023-12-23T21:13:01.109Z,1.97
2023-12-23T21:16:04.563Z,2.35
2023-12-23T21:19:07.203Z,2.05
2023-12-23T21:22:09.833Z,2.10
2023-12-23T21:25:12.495Z,2.07
2023-12-23T21:28:17.071Z,2.50
2023-12-23T21:31:19.635Z,2.13
2023-12-23T21:34:23.319Z,3.47
2023-12-23T21:37:25.920Z,3.90
2023-12-23T21:40:28.495Z,3.37
2023-12-23T21:43:31.161Z,3.45
2023-12-23T21:46:33.679Z,3.13
2023-12-23T21:49:36.271Z,3.47
2023-12-23T21:52:42.138Z,4.65
2023-12-23T21:55:44.674Z,2.83
2023-12-23T21:58:48.486Z,2.13
2023-12-23T22:01:51.059Z,3.27
2023-12-23T22:04:53.854Z,3.05
2023-12-23T22:07:56.474Z,2.95
2023-12-23T22:10:59.025Z,2.60
2023-12-23T22:14:01.688Z,2.50
2023-12-23T22:17:04.588Z,1.60
2023-12-23T22:20:07.557Z,2.55
2023-12-23T22:23:10.624Z,2.00
2023-12-23T22:26:13.861Z,2.80
2023-12-23T22:29:16.504Z,2.40
2023-12-23T22:32:19.128Z,1.80
2023-12-23T22:35:21.794Z,1.60
2023-12-23T22:38:24.421Z,1.80
2023-12-23T22:41:28.780Z,1.27
2023-12-23T22:44:31.443Z,1.20
2023-12-23T22:47:34.306Z,1.85
2023-12-23T22:50:36.975Z,1.60
2023-12-23T22:53:39.536Z,0.90
2023-12-23T22:56:42.080Z,0.90
2023-12-23T22:59:44.625Z,0.85
2023-12-23T23:02:47.513Z,1.33
2023-12-23T23:05:50.935Z,0.68
2023-12-23T23:08:53.784Z,0.90
2023-12-23T23:11:56.300Z,1.52
2023-12-23T23:14:58.790Z,1.17
2023-12-23T23:18:01.657Z,1.23
2023-12-23T23:21:04.467Z,1.00
2023-12-23T23:24:07.229Z,1.50
2023-12-23T23:27:09.771Z,1.47
2023-12-23T23:30:12.670Z,1.38
2023-12-23T23:33:15.343Z,1.58
2023-12-23T23:36:19.914Z,1.70
2023-12-23T23:39:22.500Z,1.50
2023-12-23T23:42:25.086Z,1.33
2023-12-23T23:45:27.623Z,1.15
2023-12-23T23:48:30.210Z,1.97
2023-12-23T23:51:32.768Z,1.60
2023-12-23T23:54:35.303Z,1.70
2023-12-23T23:57:42.282Z,1.73
